sensor_id;sensor_type;location;lat;lon;timestamp;P1;durP1;ratioP1;P2;durP2;ratioP2
59418;SDS011;45224;50.904;6.038;2023-05-10T00:01:06;13.43;;;7.87;;
59418;SDS011;45224;50.904;6.038;2023-05-10T00:02:37;11.82;;;7.03;;
59418;SDS011;45224;50.904;6.038;2023-05-10T00:04:08;11.95;;;7.88;;
59418;SDS011;45224;50.904;6.038;2023-05-10T00:05:39;11.60;;;7.53;;
59418;SDS011;45224;50.904;6.038;2023-05-10T00:07:09;11.32;;;7.85;;
59418;SDS011;45224;50.904;6.038;2023-05-10T00:08:40;11.63;;;7.38;;
59418;SDS011;45224;50.904;6.038;2023-05-10T00:10:11;13.82;;;8.00;;
59418;SDS011;45224;50.904;6.038;2023-05-10T00:11:42;14.98;;;9.35;;
59418;SDS011;45224;50.904;6.038;2023-05-10T00:13:12;13.00;;;8.30;;
59418;SDS011;45224;50.904;6.038;2023-05-10T00:14:43;17.73;;;9.55;;
59418;SDS011;45224;50.904;6.038;2023-05-10T00:16:13;14.73;;;9.37;;
59418;SDS011;45224;50.904;6.038;2023-05-10T00:17:44;16.93;;;8.97;;
59418;SDS011;45224;50.904;6.038;2023-05-10T00:19:14;16.10;;;10.05;;
59418;SDS011;45224;50.904;6.038;2023-05-10T00:20:45;15.93;;;9.33;;
59418;SDS011;45224;50.904;6.038;2023-05-10T00:22:16;18.50;;;10.52;;
59418;SDS011;45224;50.904;6.038;2023-05-10T00:23:46;17.50;;;9.73;;
59418;SDS011;45224;50.904;6.038;2023-05-10T00:25:16;18.47;;;10.60;;
59418;SDS011;45224;50.904;6.038;2023-05-10T00:26:47;18.27;;;9.83;;
59418;SDS011;45224;50.904;6.038;2023-05-10T00:28:18;16.10;;;10.00;;
59418;SDS011;45224;50.904;6.038;2023-05-10T00:29:48;19.10;;;10.03;;
59418;SDS011;45224;50.904;6.038;2023-05-10T00:31:19;16.57;;;10.40;;
59418;SDS011;45224;50.904;6.038;2023-05-10T00:32:49;19.40;;;10.80;;
59418;SDS011;45224;50.904;6.038;2023-05-10T00:34:20;16.60;;;9.80;;
59418;SDS011;45224;50.904;6.038;2023-05-10T00:35:50;18.95;;;10.48;;
59418;SDS011;45224;50.904;6.038;2023-05-10T00:40:20;18.55;;;10.02;;
59418;SDS011;45224;50.904;6.038;2023-05-10T00:42:11;18.88;;;9.88;;
59418;SDS011;45224;50.904;6.038;2023-05-10T00:43:42;17.45;;;10.27;;
59418;SDS011;45224;50.904;6.038;2023-05-10T00:45:12;22.73;;;10.40;;
59418;SDS011;45224;50.904;6.038;2023-05-10T00:46:43;19.67;;;10.43;;
59418;SDS011;45224;50.904;6.038;2023-05-10T00:48:13;20.63;;;10.18;;
59418;SDS011;45224;50.904;6.038;2023-05-10T00:49:44;21.60;;;11.37;;
59418;SDS011;45224;50.904;6.038;2023-05-10T00:52:46;18.03;;;9.40;;
59418;SDS011;45224;50.904;6.038;2023-05-10T00:54:16;20.40;;;9.97;;
59418;SDS011;45224;50.904;6.038;2023-05-10T00:55:47;24.90;;;10.90;;
59418;SDS011;45224;50.904;6.038;2023-05-10T00:57:18;19.45;;;10.48;;
59418;SDS011;45224;50.904;6.038;2023-05-10T00:58:49;23.77;;;11.00;;
59418;SDS011;45224;50.904;6.038;2023-05-10T01:00:20;21.10;;;12.25;;
59418;SDS011;45224;50.904;6.038;2023-05-10T01:01:50;23.80;;;12.70;;
59418;SDS011;45224;50.904;6.038;2023-05-10T01:03:22;23.60;;;12.05;;
59418;SDS011;45224;50.904;6.038;2023-05-10T01:04:52;24.13;;;13.32;;
59418;SDS011;45224;50.904;6.038;2023-05-10T01:06:23;21.17;;;12.17;;
59418;SDS011;45224;50.904;6.038;2023-05-10T01:07:53;25.20;;;13.40;;
59418;SDS011;45224;50.904;6.038;2023-05-10T01:09:24;22.67;;;13.80;;
59418;SDS011;45224;50.904;6.038;2023-05-10T01:10:56;20.95;;;13.77;;
59418;SDS011;45224;50.904;6.038;2023-05-10T01:12:27;24.10;;;14.35;;
59418;SDS011;45224;50.904;6.038;2023-05-10T01:13:58;21.98;;;13.48;;
59418;SDS011;45224;50.904;6.038;2023-05-10T01:15:29;24.05;;;14.05;;
59418;SDS011;45224;50.904;6.038;2023-05-10T01:17:00;21.95;;;13.27;;
59418;SDS011;45224;50.904;6.038;2023-05-10T01:20:08;22.92;;;13.05;;
59418;SDS011;45224;50.904;6.038;2023-05-10T01:23:42;22.98;;;13.25;;
59418;SDS011;45224;50.904;6.038;2023-05-10T01:27:19;24.98;;;12.75;;
59418;SDS011;45224;50.904;6.038;2023-05-10T01:34:59;24.27;;;14.18;;
59418;SDS011;45224;50.904;6.038;2023-05-10T01:36:43;25.25;;;14.25;;
59418;SDS011;45224;50.904;6.038;2023-05-10T01:40:26;25.15;;;14.38;;
59418;SDS011;45224;50.904;6.038;2023-05-10T01:43:37;28.25;;;14.50;;
59418;SDS011;45224;50.904;6.038;2023-05-10T01:45:23;21.67;;;12.38;;
59418;SDS011;45224;50.904;6.038;2023-05-10T01:47:06;21.00;;;13.00;;
59418;SDS011;45224;50.904;6.038;2023-05-10T01:48:40;24.73;;;13.82;;
59418;SDS011;45224;50.904;6.038;2023-05-10T01:50:18;22.27;;;13.75;;
59418;SDS011;45224;50.904;6.038;2023-05-10T01:52:04;21.30;;;13.02;;
59418;SDS011;45224;50.904;6.038;2023-05-10T01:53:38;30.33;;;14.50;;
59418;SDS011;45224;50.904;6.038;2023-05-10T01:55:11;24.63;;;14.07;;
59418;SDS011;45224;50.904;6.038;2023-05-10T01:56:50;24.40;;;13.80;;
59418;SDS011;45224;50.904;6.038;2023-05-10T01:58:32;23.00;;;14.05;;
59418;SDS011;45224;50.904;6.038;2023-05-10T02:00:06;23.50;;;13.48;;
59418;SDS011;45224;50.904;6.038;2023-05-10T02:01:45;22.38;;;12.60;;
59418;SDS011;45224;50.904;6.038;2023-05-10T02:03:18;20.00;;;11.60;;
59418;SDS011;45224;50.904;6.038;2023-05-10T02:04:54;16.83;;;11.10;;
59418;SDS011;45224;50.904;6.038;2023-05-10T02:06:25;19.52;;;11.77;;
59418;SDS011;45224;50.904;6.038;2023-05-10T02:09:28;17.80;;;10.43;;
59418;SDS011;45224;50.904;6.038;2023-05-10T02:11:02;16.90;;;10.88;;
59418;SDS011;45224;50.904;6.038;2023-05-10T02:12:35;17.88;;;10.38;;
59418;SDS011;45224;50.904;6.038;2023-05-10T02:14:07;17.88;;;11.00;;
59418;SDS011;45224;50.904;6.038;2023-05-10T02:15:40;21.33;;;11.45;;
59418;SDS011;45224;50.904;6.038;2023-05-10T02:17:12;20.23;;;11.30;;
59418;SDS011;45224;50.904;6.038;2023-05-10T02:18:44;18.65;;;10.48;;
59418;SDS011;45224;50.904;6.038;2023-05-10T02:20:16;19.83;;;11.15;;
59418;SDS011;45224;50.904;6.038;2023-05-10T02:21:49;21.60;;;10.93;;
59418;SDS011;45224;50.904;6.038;2023-05-10T02:23:21;18.52;;;10.32;;
59418;SDS011;45224;50.904;6.038;2023-05-10T02:24:57;15.93;;;10.32;;
59418;SDS011;45224;50.904;6.038;2023-05-10T02:26:30;19.70;;;10.95;;
59418;SDS011;45224;50.904;6.038;2023-05-10T02:28:04;19.52;;;10.45;;
59418;SDS011;45224;50.904;6.038;2023-05-10T02:29:36;18.05;;;10.23;;
59418;SDS011;45224;50.904;6.038;2023-05-10T02:31:07;17.10;;;9.43;;
59418;SDS011;45224;50.904;6.038;2023-05-10T02:32:42;18.30;;;9.70;;
59418;SDS011;45224;50.904;6.038;2023-05-10T02:34:13;14.98;;;8.60;;
59418;SDS011;45224;50.904;6.038;2023-05-10T02:35:44;18.80;;;10.35;;
59418;SDS011;45224;50.904;6.038;2023-05-10T02:37:15;19.40;;;10.32;;
59418;SDS011;45224;50.904;6.038;2023-05-10T02:38:48;16.08;;;9.35;;
59418;SDS011;45224;50.904;6.038;2023-05-10T02:40:21;20.27;;;11.20;;
59418;SDS011;45224;50.904;6.038;2023-05-10T02:41:53;16.65;;;9.90;;
59418;SDS011;45224;50.904;6.038;2023-05-10T02:43:25;18.35;;;10.68;;
59418;SDS011;45224;50.904;6.038;2023-05-10T02:44:59;17.45;;;9.90;;
59418;SDS011;45224;50.904;6.038;2023-05-10T02:46:31;15.18;;;9.23;;
59418;SDS011;45224;50.904;6.038;2023-05-10T02:48:01;19.93;;;11.20;;
59418;SDS011;45224;50.904;6.038;2023-05-10T02:49:32;18.75;;;10.05;;
59418;SDS011;45224;50.904;6.038;2023-05-10T02:51:05;19.70;;;10.15;;
59418;SDS011;45224;50.904;6.038;2023-05-10T02:52:45;17.20;;;10.05;;
59418;SDS011;45224;50.904;6.038;2023-05-10T02:54:23;20.00;;;10.57;;
59418;SDS011;45224;50.904;6.038;2023-05-10T02:55:58;18.30;;;9.63;;
59418;SDS011;45224;50.904;6.038;2023-05-10T02:57:32;20.80;;;11.20;;
59418;SDS011;45224;50.904;6.038;2023-05-10T02:59:04;20.50;;;11.43;;
59418;SDS011;45224;50.904;6.038;2023-05-10T03:00:35;19.45;;;11.55;;
59418;SDS011;45224;50.904;6.038;2023-05-10T03:02:06;23.13;;;12.02;;
59418;SDS011;45224;50.904;6.038;2023-05-10T03:03:37;23.55;;;10.60;;
59418;SDS011;45224;50.904;6.038;2023-05-10T03:05:08;20.90;;;12.00;;
59418;SDS011;45224;50.904;6.038;2023-05-10T03:06:39;23.45;;;11.88;;
59418;SDS011;45224;50.904;6.038;2023-05-10T03:08:10;23.15;;;12.52;;
59418;SDS011;45224;50.904;6.038;2023-05-10T03:09:41;25.80;;;12.95;;
59418;SDS011;45224;50.904;6.038;2023-05-10T03:11:24;24.80;;;12.60;;
59418;SDS011;45224;50.904;6.038;2023-05-10T03:17:07;28.13;;;12.88;;
59418;SDS011;45224;50.904;6.038;2023-05-10T03:18:48;26.83;;;13.32;;
59418;SDS011;45224;50.904;6.038;2023-05-10T03:20:26;31.15;;;13.27;;
59418;SDS011;45224;50.904;6.038;2023-05-10T03:22:03;29.30;;;13.75;;
59418;SDS011;45224;50.904;6.038;2023-05-10T03:23:50;28.77;;;14.65;;
59418;SDS011;45224;50.904;6.038;2023-05-10T03:25:25;31.42;;;13.77;;
59418;SDS011;45224;50.904;6.038;2023-05-10T03:26:57;32.75;;;15.07;;
59418;SDS011;45224;50.904;6.038;2023-05-10T03:28:33;31.85;;;15.38;;
59418;SDS011;45224;50.904;6.038;2023-05-10T03:30:07;30.25;;;13.60;;
59418;SDS011;45224;50.904;6.038;2023-05-10T03:31:40;38.45;;;15.93;;
59418;SDS011;45224;50.904;6.038;2023-05-10T03:33:11;37.45;;;15.05;;
59418;SDS011;45224;50.904;6.038;2023-05-10T03:34:45;31.58;;;14.48;;
59418;SDS011;45224;50.904;6.038;2023-05-10T03:36:16;33.88;;;14.88;;
59418;SDS011;45224;50.904;6.038;2023-05-10T03:37:47;36.17;;;14.65;;
59418;SDS011;45224;50.904;6.038;2023-05-10T03:39:17;34.67;;;15.07;;
59418;SDS011;45224;50.904;6.038;2023-05-10T03:40:53;32.40;;;15.00;;
59418;SDS011;45224;50.904;6.038;2023-05-10T03:42:24;31.80;;;14.27;;
59418;SDS011;45224;50.904;6.038;2023-05-10T03:43:54;30.10;;;13.37;;
59418;SDS011;45224;50.904;6.038;2023-05-10T03:45:25;37.47;;;15.70;;
59418;SDS011;45224;50.904;6.038;2023-05-10T03:46:56;35.25;;;14.52;;
59418;SDS011;45224;50.904;6.038;2023-05-10T03:48:27;39.67;;;15.63;;
59418;SDS011;45224;50.904;6.038;2023-05-10T03:49:57;39.53;;;16.13;;
59418;SDS011;45224;50.904;6.038;2023-05-10T03:51:28;37.07;;;14.27;;
59418;SDS011;45224;50.904;6.038;2023-05-10T03:52:58;35.80;;;14.77;;
59418;SDS011;45224;50.904;6.038;2023-05-10T03:54:30;34.85;;;14.82;;
59418;SDS011;45224;50.904;6.038;2023-05-10T03:56:01;36.25;;;14.43;;
59418;SDS011;45224;50.904;6.038;2023-05-10T03:57:31;36.93;;;14.50;;
59418;SDS011;45224;50.904;6.038;2023-05-10T03:59:02;28.93;;;13.83;;
59418;SDS011;45224;50.904;6.038;2023-05-10T04:00:37;30.17;;;14.32;;
59418;SDS011;45224;50.904;6.038;2023-05-10T04:02:13;35.67;;;14.60;;
59418;SDS011;45224;50.904;6.038;2023-05-10T04:03:44;31.67;;;13.93;;
59418;SDS011;45224;50.904;6.038;2023-05-10T04:05:16;29.58;;;12.57;;
59418;SDS011;45224;50.904;6.038;2023-05-10T04:06:46;35.87;;;14.17;;
59418;SDS011;45224;50.904;6.038;2023-05-10T04:08:17;32.90;;;13.53;;
59418;SDS011;45224;50.904;6.038;2023-05-10T04:09:47;31.50;;;13.97;;
59418;SDS011;45224;50.904;6.038;2023-05-10T04:11:18;32.60;;;14.05;;
59418;SDS011;45224;50.904;6.038;2023-05-10T04:12:48;35.43;;;13.30;;
59418;SDS011;45224;50.904;6.038;2023-05-10T04:14:19;34.50;;;12.93;;
59418;SDS011;45224;50.904;6.038;2023-05-10T04:15:49;28.23;;;13.37;;
59418;SDS011;45224;50.904;6.038;2023-05-10T04:17:19;30.67;;;13.77;;
59418;SDS011;45224;50.904;6.038;2023-05-10T04:18:50;33.27;;;13.60;;
59418;SDS011;45224;50.904;6.038;2023-05-10T04:20:20;28.37;;;12.87;;
59418;SDS011;45224;50.904;6.038;2023-05-10T04:21:51;33.67;;;13.68;;
59418;SDS011;45224;50.904;6.038;2023-05-10T04:23:21;30.33;;;13.43;;
59418;SDS011;45224;50.904;6.038;2023-05-10T04:24:52;29.93;;;13.43;;
59418;SDS011;45224;50.904;6.038;2023-05-10T04:26:23;33.70;;;13.23;;
59418;SDS011;45224;50.904;6.038;2023-05-10T04:27:55;30.15;;;13.98;;
59418;SDS011;45224;50.904;6.038;2023-05-10T04:29:26;31.27;;;12.93;;
59418;SDS011;45224;50.904;6.038;2023-05-10T04:31:00;35.80;;;14.00;;
59418;SDS011;45224;50.904;6.038;2023-05-10T04:32:34;26.63;;;12.85;;
59418;SDS011;45224;50.904;6.038;2023-05-10T04:34:05;33.80;;;14.10;;
59418;SDS011;45224;50.904;6.038;2023-05-10T04:35:35;27.77;;;13.27;;
59418;SDS011;45224;50.904;6.038;2023-05-10T04:37:06;35.03;;;14.00;;
59418;SDS011;45224;50.904;6.038;2023-05-10T04:40:08;31.90;;;13.83;;
59418;SDS011;45224;50.904;6.038;2023-05-10T04:41:39;32.75;;;12.95;;
59418;SDS011;45224;50.904;6.038;2023-05-10T04:43:09;33.00;;;13.75;;
59418;SDS011;45224;50.904;6.038;2023-05-10T04:44:40;33.07;;;13.43;;
59418;SDS011;45224;50.904;6.038;2023-05-10T04:46:11;28.85;;;13.20;;
59418;SDS011;45224;50.904;6.038;2023-05-10T04:47:41;35.97;;;14.18;;
59418;SDS011;45224;50.904;6.038;2023-05-10T04:49:12;31.50;;;14.33;;
59418;SDS011;45224;50.904;6.038;2023-05-10T04:50:42;36.83;;;15.03;;
59418;SDS011;45224;50.904;6.038;2023-05-10T04:52:13;35.30;;;15.37;;
59418;SDS011;45224;50.904;6.038;2023-05-10T04:53:44;33.80;;;13.88;;
59418;SDS011;45224;50.904;6.038;2023-05-10T04:55:14;31.93;;;13.73;;
59418;SDS011;45224;50.904;6.038;2023-05-10T04:56:45;32.77;;;14.17;;
59418;SDS011;45224;50.904;6.038;2023-05-10T04:58:15;27.92;;;13.35;;
59418;SDS011;45224;50.904;6.038;2023-05-10T04:59:46;36.20;;;15.87;;
59418;SDS011;45224;50.904;6.038;2023-05-10T05:01:16;31.00;;;14.40;;
59418;SDS011;45224;50.904;6.038;2023-05-10T05:02:47;28.80;;;13.05;;
59418;SDS011;45224;50.904;6.038;2023-05-10T05:04:17;29.87;;;13.77;;
59418;SDS011;45224;50.904;6.038;2023-05-10T05:05:48;31.03;;;14.03;;
59418;SDS011;45224;50.904;6.038;2023-05-10T05:07:18;34.93;;;14.90;;
59418;SDS011;45224;50.904;6.038;2023-05-10T05:08:49;29.37;;;14.47;;
59418;SDS011;45224;50.904;6.038;2023-05-10T05:10:19;32.75;;;14.20;;
59418;SDS011;45224;50.904;6.038;2023-05-10T05:11:50;33.63;;;14.67;;
59418;SDS011;45224;50.904;6.038;2023-05-10T05:13:21;30.00;;;14.00;;
59418;SDS011;45224;50.904;6.038;2023-05-10T05:14:51;35.63;;;14.65;;
59418;SDS011;45224;50.904;6.038;2023-05-10T05:16:22;30.93;;;13.80;;
59418;SDS011;45224;50.904;6.038;2023-05-10T05:17:52;27.40;;;14.63;;
59418;SDS011;45224;50.904;6.038;2023-05-10T05:19:23;27.42;;;14.57;;
59418;SDS011;45224;50.904;6.038;2023-05-10T05:20:54;28.83;;;12.93;;
59418;SDS011;45224;50.904;6.038;2023-05-10T05:22:24;31.07;;;13.40;;
59418;SDS011;45224;50.904;6.038;2023-05-10T05:23:58;28.70;;;12.85;;
59418;SDS011;45224;50.904;6.038;2023-05-10T05:25:29;34.30;;;13.80;;
59418;SDS011;45224;50.904;6.038;2023-05-10T05:26:59;28.27;;;12.57;;
59418;SDS011;45224;50.904;6.038;2023-05-10T05:28:30;24.00;;;11.68;;
59418;SDS011;45224;50.904;6.038;2023-05-10T05:30:04;25.40;;;11.85;;
59418;SDS011;45224;50.904;6.038;2023-05-10T05:31:35;27.15;;;12.63;;
59418;SDS011;45224;50.904;6.038;2023-05-10T05:33:05;25.07;;;11.40;;
59418;SDS011;45224;50.904;6.038;2023-05-10T05:34:36;20.77;;;10.53;;
59418;SDS011;45224;50.904;6.038;2023-05-10T05:36:06;22.53;;;11.40;;
59418;SDS011;45224;50.904;6.038;2023-05-10T05:37:37;23.47;;;10.83;;
59418;SDS011;45224;50.904;6.038;2023-05-10T05:39:07;21.70;;;10.20;;
59418;SDS011;45224;50.904;6.038;2023-05-10T05:40:38;23.67;;;10.80;;
59418;SDS011;45224;50.904;6.038;2023-05-10T05:42:09;22.43;;;10.00;;
59418;SDS011;45224;50.904;6.038;2023-05-10T05:43:40;25.48;;;10.25;;
59418;SDS011;45224;50.904;6.038;2023-05-10T05:45:10;23.87;;;11.40;;
59418;SDS011;45224;50.904;6.038;2023-05-10T05:46:43;20.00;;;9.90;;
59418;SDS011;45224;50.904;6.038;2023-05-10T05:48:13;23.27;;;10.32;;
59418;SDS011;45224;50.904;6.038;2023-05-10T05:49:44;23.00;;;10.43;;
59418;SDS011;45224;50.904;6.038;2023-05-10T05:51:17;18.65;;;10.13;;
59418;SDS011;45224;50.904;6.038;2023-05-10T05:52:47;20.40;;;10.57;;
59418;SDS011;45224;50.904;6.038;2023-05-10T05:54:18;22.27;;;10.07;;
59418;SDS011;45224;50.904;6.038;2023-05-10T05:55:52;22.63;;;10.83;;
59418;SDS011;45224;50.904;6.038;2023-05-10T05:57:24;19.67;;;10.10;;
59418;SDS011;45224;50.904;6.038;2023-05-10T05:58:56;22.15;;;10.80;;
59418;SDS011;45224;50.904;6.038;2023-05-10T06:00:27;20.83;;;9.27;;
59418;SDS011;45224;50.904;6.038;2023-05-10T06:01:57;19.65;;;9.32;;
59418;SDS011;45224;50.904;6.038;2023-05-10T06:03:28;17.33;;;9.20;;
59418;SDS011;45224;50.904;6.038;2023-05-10T06:04:59;21.63;;;10.07;;
59418;SDS011;45224;50.904;6.038;2023-05-10T06:06:29;17.38;;;8.77;;
59418;SDS011;45224;50.904;6.038;2023-05-10T06:08:00;18.42;;;9.57;;
59418;SDS011;45224;50.904;6.038;2023-05-10T06:09:31;17.02;;;9.43;;
59418;SDS011;45224;50.904;6.038;2023-05-10T06:11:01;20.50;;;9.43;;
59418;SDS011;45224;50.904;6.038;2023-05-10T06:12:34;18.33;;;9.07;;
59418;SDS011;45224;50.904;6.038;2023-05-10T06:14:04;23.40;;;10.50;;
59418;SDS011;45224;50.904;6.038;2023-05-10T06:15:37;19.42;;;9.73;;
59418;SDS011;45224;50.904;6.038;2023-05-10T06:17:08;18.95;;;9.38;;
59418;SDS011;45224;50.904;6.038;2023-05-10T06:18:39;18.45;;;9.57;;
59418;SDS011;45224;50.904;6.038;2023-05-10T06:20:09;19.07;;;9.70;;
59418;SDS011;45224;50.904;6.038;2023-05-10T06:21:40;18.33;;;9.82;;
59418;SDS011;45224;50.904;6.038;2023-05-10T06:23:11;19.07;;;9.93;;
59418;SDS011;45224;50.904;6.038;2023-05-10T06:24:41;18.27;;;9.30;;
59418;SDS011;45224;50.904;6.038;2023-05-10T06:26:12;17.70;;;9.20;;
59418;SDS011;45224;50.904;6.038;2023-05-10T06:27:44;19.02;;;9.10;;
59418;SDS011;45224;50.904;6.038;2023-05-10T06:29:14;21.27;;;10.25;;
59418;SDS011;45224;50.904;6.038;2023-05-10T06:30:45;17.63;;;9.20;;
59418;SDS011;45224;50.904;6.038;2023-05-10T06:32:15;19.67;;;9.23;;
59418;SDS011;45224;50.904;6.038;2023-05-10T06:33:46;18.17;;;9.87;;
59418;SDS011;45224;50.904;6.038;2023-05-10T06:35:16;19.17;;;9.60;;
59418;SDS011;45224;50.904;6.038;2023-05-10T06:36:47;15.97;;;8.90;;
59418;SDS011;45224;50.904;6.038;2023-05-10T06:38:17;15.50;;;8.47;;
59418;SDS011;45224;50.904;6.038;2023-05-10T06:39:48;17.23;;;8.60;;
59418;SDS011;45224;50.904;6.038;2023-05-10T06:41:18;15.97;;;8.50;;
59418;SDS011;45224;50.904;6.038;2023-05-10T06:42:49;18.10;;;8.47;;
59418;SDS011;45224;50.904;6.038;2023-05-10T06:44:19;14.87;;;7.53;;
59418;SDS011;45224;50.904;6.038;2023-05-10T06:45:50;16.02;;;8.30;;
59418;SDS011;45224;50.904;6.038;2023-05-10T06:47:20;16.37;;;8.10;;
59418;SDS011;45224;50.904;6.038;2023-05-10T06:48:52;16.10;;;8.30;;
59418;SDS011;45224;50.904;6.038;2023-05-10T06:50:22;14.43;;;7.93;;
59418;SDS011;45224;50.904;6.038;2023-05-10T06:51:53;16.10;;;8.03;;
59418;SDS011;45224;50.904;6.038;2023-05-10T06:53:23;15.52;;;7.82;;
59418;SDS011;45224;50.904;6.038;2023-05-10T06:54:54;16.30;;;8.57;;
59418;SDS011;45224;50.904;6.038;2023-05-10T06:56:24;15.77;;;8.30;;
59418;SDS011;45224;50.904;6.038;2023-05-10T06:57:55;12.87;;;6.87;;
59418;SDS011;45224;50.904;6.038;2023-05-10T06:59:25;14.53;;;7.80;;
59418;SDS011;45224;50.904;6.038;2023-05-10T07:01:01;13.53;;;7.67;;
59418;SDS011;45224;50.904;6.038;2023-05-10T07:02:32;14.80;;;7.90;;
59418;SDS011;45224;50.904;6.038;2023-05-10T07:04:03;14.90;;;8.23;;
59418;SDS011;45224;50.904;6.038;2023-05-10T07:05:34;15.13;;;7.38;;
59418;SDS011;45224;50.904;6.038;2023-05-10T07:07:04;14.73;;;7.73;;
59418;SDS011;45224;50.904;6.038;2023-05-10T07:08:35;18.08;;;9.52;;
59418;SDS011;45224;50.904;6.038;2023-05-10T07:10:06;16.00;;;8.77;;
59418;SDS011;45224;50.904;6.038;2023-05-10T07:11:37;13.88;;;8.30;;
59418;SDS011;45224;50.904;6.038;2023-05-10T07:13:08;18.57;;;9.20;;
59418;SDS011;45224;50.904;6.038;2023-05-10T07:14:39;16.95;;;8.57;;
59418;SDS011;45224;50.904;6.038;2023-05-10T07:16:10;21.13;;;9.97;;
59418;SDS011;45224;50.904;6.038;2023-05-10T07:17:41;19.10;;;9.18;;
59418;SDS011;45224;50.904;6.038;2023-05-10T07:19:11;21.10;;;9.30;;
59418;SDS011;45224;50.904;6.038;2023-05-10T07:20:42;22.63;;;10.20;;
59418;SDS011;45224;50.904;6.038;2023-05-10T07:22:12;24.30;;;10.67;;
59418;SDS011;45224;50.904;6.038;2023-05-10T07:23:43;30.63;;;11.65;;
59418;SDS011;45224;50.904;6.038;2023-05-10T07:25:13;30.37;;;13.00;;
59418;SDS011;45224;50.904;6.038;2023-05-10T07:26:44;27.40;;;12.17;;
59418;SDS011;45224;50.904;6.038;2023-05-10T07:28:15;33.90;;;13.57;;
59418;SDS011;45224;50.904;6.038;2023-05-10T07:29:46;38.28;;;14.27;;
59418;SDS011;45224;50.904;6.038;2023-05-10T07:31:16;42.92;;;16.90;;
59418;SDS011;45224;50.904;6.038;2023-05-10T07:32:47;52.22;;;18.83;;
59418;SDS011;45224;50.904;6.038;2023-05-10T07:34:17;46.37;;;17.30;;
59418;SDS011;45224;50.904;6.038;2023-05-10T07:35:49;48.97;;;17.63;;
59418;SDS011;45224;50.904;6.038;2023-05-10T07:37:20;48.78;;;17.60;;
59418;SDS011;45224;50.904;6.038;2023-05-10T07:38:50;52.13;;;18.07;;
59418;SDS011;45224;50.904;6.038;2023-05-10T07:40:21;54.72;;;18.38;;
59418;SDS011;45224;50.904;6.038;2023-05-10T07:41:51;58.00;;;21.25;;
59418;SDS011;45224;50.904;6.038;2023-05-10T07:43:22;58.43;;;20.93;;
59418;SDS011;45224;50.904;6.038;2023-05-10T07:44:52;54.73;;;18.93;;
59418;SDS011;45224;50.904;6.038;2023-05-10T07:46:23;52.83;;;18.93;;
59418;SDS011;45224;50.904;6.038;2023-05-10T07:47:53;55.27;;;20.03;;
59418;SDS011;45224;50.904;6.038;2023-05-10T07:49:24;51.20;;;19.80;;
59418;SDS011;45224;50.904;6.038;2023-05-10T07:50:54;57.47;;;20.27;;
59418;SDS011;45224;50.904;6.038;2023-05-10T07:52:25;48.70;;;18.57;;
59418;SDS011;45224;50.904;6.038;2023-05-10T07:53:55;56.63;;;20.83;;
59418;SDS011;45224;50.904;6.038;2023-05-10T07:56:57;54.07;;;19.23;;
59418;SDS011;45224;50.904;6.038;2023-05-10T07:58:27;49.97;;;18.20;;
59418;SDS011;45224;50.904;6.038;2023-05-10T07:59:58;54.85;;;20.70;;
59418;SDS011;45224;50.904;6.038;2023-05-10T08:01:32;51.97;;;20.00;;
59418;SDS011;45224;50.904;6.038;2023-05-10T08:03:03;45.95;;;18.33;;
59418;SDS011;45224;50.904;6.038;2023-05-10T08:04:34;45.30;;;17.60;;
59418;SDS011;45224;50.904;6.038;2023-05-10T08:06:05;52.28;;;20.10;;
59418;SDS011;45224;50.904;6.038;2023-05-10T08:07:36;48.53;;;18.83;;
59418;SDS011;45224;50.904;6.038;2023-05-10T08:09:06;44.90;;;18.03;;
59418;SDS011;45224;50.904;6.038;2023-05-10T08:10:37;45.80;;;17.50;;
59418;SDS011;45224;50.904;6.038;2023-05-10T08:12:07;52.87;;;19.20;;
59418;SDS011;45224;50.904;6.038;2023-05-10T08:13:37;47.20;;;16.80;;
59418;SDS011;45224;50.904;6.038;2023-05-10T08:15:08;47.70;;;17.50;;
59418;SDS011;45224;50.904;6.038;2023-05-10T08:16:39;48.42;;;17.48;;
59418;SDS011;45224;50.904;6.038;2023-05-10T08:18:09;44.57;;;17.67;;
59418;SDS011;45224;50.904;6.038;2023-05-10T08:19:40;48.87;;;18.07;;
59418;SDS011;45224;50.904;6.038;2023-05-10T08:21:10;53.03;;;18.50;;
59418;SDS011;45224;50.904;6.038;2023-05-10T08:22:41;51.40;;;18.48;;
59418;SDS011;45224;50.904;6.038;2023-05-10T08:24:11;45.77;;;17.70;;
59418;SDS011;45224;50.904;6.038;2023-05-10T08:25:42;44.80;;;16.47;;
59418;SDS011;45224;50.904;6.038;2023-05-10T08:27:12;45.53;;;17.13;;
59418;SDS011;45224;50.904;6.038;2023-05-10T08:28:43;47.90;;;18.67;;
59418;SDS011;45224;50.904;6.038;2023-05-10T08:30:13;51.17;;;17.97;;
59418;SDS011;45224;50.904;6.038;2023-05-10T08:31:44;49.00;;;18.87;;
59418;SDS011;45224;50.904;6.038;2023-05-10T08:33:15;49.28;;;17.67;;
59418;SDS011;45224;50.904;6.038;2023-05-10T08:34:45;48.53;;;17.90;;
59418;SDS011;45224;50.904;6.038;2023-05-10T08:36:16;46.27;;;18.50;;
59418;SDS011;45224;50.904;6.038;2023-05-10T08:37:51;43.38;;;17.13;;
59418;SDS011;45224;50.904;6.038;2023-05-10T08:39:21;43.33;;;17.37;;
59418;SDS011;45224;50.904;6.038;2023-05-10T08:42:27;39.20;;;15.65;;
59418;SDS011;45224;50.904;6.038;2023-05-10T08:44:00;39.42;;;15.77;;
59418;SDS011;45224;50.904;6.038;2023-05-10T08:45:53;39.70;;;15.57;;
59418;SDS011;45224;50.904;6.038;2023-05-10T08:47:24;33.97;;;13.82;;
59418;SDS011;45224;50.904;6.038;2023-05-10T08:48:55;29.08;;;13.23;;
59418;SDS011;45224;50.904;6.038;2023-05-10T08:50:28;30.08;;;11.85;;
59418;SDS011;45224;50.904;6.038;2023-05-10T08:52:02;23.13;;;11.18;;
59418;SDS011;45224;50.904;6.038;2023-05-10T08:53:34;24.92;;;10.48;;
59418;SDS011;45224;50.904;6.038;2023-05-10T08:55:07;18.27;;;9.32;;
59418;SDS011;45224;50.904;6.038;2023-05-10T08:56:37;19.17;;;9.30;;
59418;SDS011;45224;50.904;6.038;2023-05-10T08:58:08;20.63;;;8.53;;
59418;SDS011;45224;50.904;6.038;2023-05-10T08:59:39;15.13;;;7.70;;
59418;SDS011;45224;50.904;6.038;2023-05-10T09:01:09;16.17;;;7.50;;
59418;SDS011;45224;50.904;6.038;2023-05-10T09:02:42;13.13;;;6.60;;
59418;SDS011;45224;50.904;6.038;2023-05-10T09:04:14;14.32;;;7.43;;
59418;SDS011;45224;50.904;6.038;2023-05-10T09:05:44;12.40;;;6.97;;
59418;SDS011;45224;50.904;6.038;2023-05-10T09:07:15;14.75;;;7.38;;
59418;SDS011;45224;50.904;6.038;2023-05-10T09:08:46;11.23;;;6.15;;
59418;SDS011;45224;50.904;6.038;2023-05-10T09:10:17;10.90;;;6.28;;
59418;SDS011;45224;50.904;6.038;2023-05-10T09:11:48;12.30;;;6.70;;
59418;SDS011;45224;50.904;6.038;2023-05-10T09:13:19;12.43;;;6.57;;
59418;SDS011;45224;50.904;6.038;2023-05-10T09:14:52;12.48;;;6.53;;
59418;SDS011;45224;50.904;6.038;2023-05-10T09:16:24;13.65;;;6.80;;
59418;SDS011;45224;50.904;6.038;2023-05-10T09:17:54;12.90;;;6.47;;
59418;SDS011;45224;50.904;6.038;2023-05-10T09:19:25;14.93;;;6.45;;
59418;SDS011;45224;50.904;6.038;2023-05-10T09:20:58;12.15;;;6.72;;
59418;SDS011;45224;50.904;6.038;2023-05-10T09:22:28;10.87;;;5.50;;
59418;SDS011;45224;50.904;6.038;2023-05-10T09:25:33;12.23;;;5.38;;
59418;SDS011;45224;50.904;6.038;2023-05-10T09:27:03;10.15;;;5.25;;
59418;SDS011;45224;50.904;6.038;2023-05-10T09:28:34;10.83;;;4.83;;
59418;SDS011;45224;50.904;6.038;2023-05-10T09:30:25;9.30;;;4.65;;
59418;SDS011;45224;50.904;6.038;2023-05-10T09:32:00;9.80;;;5.00;;